createdAt,value
2019-06-26T00:01:06.124Z,16.10
2019-06-26T00:03:34.569Z,14.55
2019-06-26T00:06:02.967Z,14.25
2019-06-26T00:08:31.363Z,15.25
2019-06-26T00:10:59.675Z,16.27
2019-06-26T00:13:28.111Z,13.85
2019-06-26T00:15:56.656Z,16.00
2019-06-26T00:18:25.115Z,11.75
2019-06-26T00:20:53.545Z,12.28
2019-06-26T00:23:23.074Z,11.60
2019-06-26T00:25:51.360Z,11.90
2019-06-26T00:28:19.857Z,10.53
2019-06-26T00:30:48.346Z,12.47
2019-06-26T00:33:16.606Z,11.38
2019-06-26T00:35:44.923Z,10.68
2019-06-26T00:38:13.264Z,13.43
2019-06-26T00:40:41.711Z,13.75
2019-06-26T00:43:10.193Z,12.88
2019-06-26T00:45:38.535Z,14.05
2019-06-26T00:48:06.940Z,9.75
2019-06-26T00:50:35.276Z,10.28
2019-06-26T00:53:03.862Z,11.55
2019-06-26T00:55:32.143Z,10.05
2019-06-26T00:58:00.569Z,14.87
2019-06-26T01:00:35.045Z,11.33
2019-06-26T01:03:03.587Z,12.15
2019-06-26T01:05:32.086Z,11.97
2019-06-26T01:08:00.491Z,14.63
2019-06-26T01:10:28.755Z,12.53
2019-06-26T01:12:57.184Z,14.73
2019-06-26T01:15:25.695Z,15.48
2019-06-26T01:17:54.183Z,10.15
2019-06-26T01:20:22.677Z,12.40
2019-06-26T01:22:51.194Z,15.32
2019-06-26T01:25:20.575Z,9.95
2019-06-26T01:27:48.993Z,11.35
2019-06-26T01:30:17.520Z,11.18
2019-06-26T01:32:45.980Z,10.63
2019-06-26T01:35:14.570Z,12.05
2019-06-26T01:37:42.928Z,9.63
2019-06-26T01:40:11.617Z,9.58
2019-06-26T01:42:40.279Z,10.63
2019-06-26T01:45:09.346Z,10.75
2019-06-26T01:47:37.731Z,14.30
2019-06-26T01:50:06.744Z,12.25
2019-06-26T01:52:35.527Z,11.53
2019-06-26T01:55:04.240Z,10.88
2019-06-26T01:57:32.658Z,14.05
2019-06-26T02:00:01.116Z,10.13
2019-06-26T02:02:29.609Z,11.08
2019-06-26T02:04:57.922Z,10.20
2019-06-26T02:07:26.490Z,11.70
2019-06-26T02:09:55.016Z,14.33
2019-06-26T02:12:23.499Z,12.10
2019-06-26T02:14:51.872Z,10.05
2019-06-26T02:17:20.156Z,12.88
2019-06-26T02:19:48.429Z,12.00
2019-06-26T02:22:16.884Z,17.55
2019-06-26T02:24:45.191Z,11.05
2019-06-26T02:27:15.609Z,11.65
2019-06-26T02:29:43.991Z,12.15
2019-06-26T02:32:12.276Z,11.43
2019-06-26T02:34:40.545Z,10.45
2019-06-26T02:37:09.024Z,11.97
2019-06-26T02:39:37.523Z,15.18
2019-06-26T02:42:06.109Z,15.13
2019-06-26T02:44:51.388Z,12.18
2019-06-26T02:47:18.589Z,12.55
2019-06-26T02:49:35.049Z,10.70
2019-06-26T02:52:03.582Z,13.00
2019-06-26T02:54:31.980Z,11.85
2019-06-26T02:57:00.362Z,10.23
2019-06-26T02:59:28.959Z,10.10
2019-06-26T03:01:57.512Z,10.80
2019-06-26T03:04:26.022Z,12.03
2019-06-26T03:06:54.312Z,16.07
2019-06-26T03:09:22.619Z,17.48
2019-06-26T03:11:51.073Z,19.20
2019-06-26T03:14:23.015Z,14.05
2019-06-26T03:16:51.565Z,18.77
2019-06-26T03:19:19.944Z,15.18
2019-06-26T03:21:48.828Z,11.50
2019-06-26T03:24:19.255Z,13.05
2019-06-26T03:26:50.236Z,17.52
2019-06-26T03:29:22.598Z,14.43
2019-06-26T03:31:51.375Z,13.83
2019-06-26T03:34:20.360Z,15.63
2019-06-26T03:36:49.697Z,14.40
2019-06-26T03:39:18.107Z,16.02
2019-06-26T03:41:46.422Z,16.15
2019-06-26T03:44:14.928Z,10.68
2019-06-26T03:46:43.275Z,12.82
2019-06-26T03:49:11.701Z,10.72
2019-06-26T03:51:41.079Z,12.30
2019-06-26T03:54:12.124Z,10.95
2019-06-26T03:56:40.474Z,14.18
2019-06-26T03:59:08.890Z,14.00
2019-06-26T04:01:37.194Z,11.18
2019-06-26T04:04:05.769Z,15.25
2019-06-26T04:06:34.141Z,15.13
2019-06-26T04:09:02.507Z,14.58
2019-06-26T04:11:32.370Z,11.50
2019-06-26T04:14:00.799Z,9.90
2019-06-26T04:16:29.494Z,11.10
2019-06-26T04:18:57.897Z,11.33
2019-06-26T04:21:26.533Z,13.08
2019-06-26T04:23:54.900Z,12.07
2019-06-26T04:26:23.397Z,11.48
2019-06-26T04:28:51.892Z,15.63
2019-06-26T04:31:20.629Z,17.25
2019-06-26T04:33:49.031Z,18.55
2019-06-26T04:36:17.600Z,22.85
2019-06-26T04:38:46.033Z,19.82
2019-06-26T04:41:14.514Z,21.05
2019-06-26T04:43:42.966Z,14.47
2019-06-26T04:46:11.418Z,14.87
2019-06-26T04:48:39.897Z,16.17
2019-06-26T04:51:08.388Z,17.30
2019-06-26T04:53:36.768Z,13.80
2019-06-26T04:56:05.387Z,15.28
2019-06-26T04:58:37.627Z,10.72
2019-06-26T05:01:11.164Z,13.22
2019-06-26T05:03:42.942Z,10.68
2019-06-26T05:06:11.389Z,12.68
2019-06-26T05:08:39.828Z,12.45
2019-06-26T05:11:08.230Z,12.47
2019-06-26T05:13:36.838Z,10.32
2019-06-26T05:16:15.152Z,10.68
2019-06-26T05:18:35.735Z,10.95
2019-06-26T05:21:05.730Z,10.90
2019-06-26T05:23:35.148Z,15.65
2019-06-26T05:26:03.816Z,13.85
2019-06-26T05:28:32.076Z,9.78
2019-06-26T05:31:00.585Z,12.13
2019-06-26T05:33:29.153Z,11.78
2019-06-26T05:35:57.602Z,12.55
2019-06-26T05:38:26.232Z,17.87
2019-06-26T05:40:54.692Z,12.10
2019-06-26T05:43:23.053Z,15.50
2019-06-26T05:45:51.541Z,12.95
2019-06-26T05:48:20.994Z,14.65
2019-06-26T05:50:49.398Z,12.60
2019-06-26T05:53:17.880Z,11.33
2019-06-26T05:55:46.564Z,10.75
2019-06-26T05:58:15.176Z,13.18
2019-06-26T06:00:43.764Z,11.50
2019-06-26T06:03:12.183Z,10.63
2019-06-26T06:05:40.710Z,12.78
2019-06-26T06:08:09.086Z,12.37
2019-06-26T06:10:37.753Z,10.58
2019-06-26T06:13:07.264Z,12.47
2019-06-26T06:15:35.755Z,11.95
2019-06-26T06:18:04.319Z,13.15
2019-06-26T06:20:38.505Z,11.30
2019-06-26T06:23:09.750Z,10.28
2019-06-26T06:25:38.087Z,13.83
2019-06-26T06:28:06.414Z,10.20
2019-06-26T06:30:34.814Z,12.33
2019-06-26T06:33:04.258Z,10.98
2019-06-26T06:35:32.724Z,12.43
2019-06-26T06:38:01.073Z,10.93
2019-06-26T06:40:29.471Z,10.80
2019-06-26T06:42:57.826Z,13.00
2019-06-26T06:45:26.661Z,10.03
2019-06-26T06:47:58.780Z,11.30
2019-06-26T06:50:27.193Z,9.50
2019-06-26T06:52:55.675Z,13.35
2019-06-26T06:55:24.264Z,11.28
2019-06-26T06:57:52.647Z,11.70
2019-06-26T07:00:22.897Z,11.00
2019-06-26T07:02:55.043Z,12.18
2019-06-26T07:05:23.628Z,11.22
2019-06-26T07:07:52.182Z,9.88
2019-06-26T07:10:20.708Z,9.93
2019-06-26T07:12:51.397Z,12.40
2019-06-26T07:15:21.156Z,11.20
2019-06-26T07:17:49.555Z,10.82
2019-06-26T07:20:18.119Z,13.03
2019-06-26T07:22:48.568Z,10.78
2019-06-26T07:25:17.162Z,19.65
2019-06-26T07:27:45.644Z,12.33
2019-06-26T07:30:15.346Z,11.88
2019-06-26T07:32:43.691Z,11.35
2019-06-26T07:35:12.983Z,9.63
2019-06-26T07:37:41.408Z,10.58
2019-06-26T07:40:12.432Z,10.70
2019-06-26T07:42:40.932Z,13.85
2019-06-26T07:45:09.477Z,11.83
2019-06-26T07:47:43.488Z,11.33
2019-06-26T07:50:13.983Z,17.05
2019-06-26T07:52:42.728Z,10.08
2019-06-26T07:55:13.288Z,13.30
2019-06-26T07:57:41.946Z,14.33
2019-06-26T08:00:11.082Z,13.10
2019-06-26T08:02:39.507Z,9.93
2019-06-26T08:05:09.191Z,9.58
2019-06-26T08:07:38.927Z,10.38
2019-06-26T08:23:22.387Z,10.25
2019-06-26T08:35:40.185Z,11.75
2019-06-26T08:42:44.096Z,14.87
2019-06-26T08:45:18.767Z,14.18
2019-06-26T08:47:53.786Z,13.80
2019-06-26T08:50:26.393Z,14.45
2019-06-26T08:52:58.847Z,11.40
2019-06-26T08:55:27.409Z,12.15
2019-06-26T08:57:58.943Z,10.53
2019-06-26T09:00:29.511Z,15.10
2019-06-26T09:03:08.242Z,13.05
2019-06-26T09:05:47.498Z,10.72
2019-06-26T09:17:52.202Z,12.95
2019-06-26T09:33:41.780Z,10.08
2019-06-26T09:36:10.929Z,9.65
2019-06-26T09:38:42.517Z,12.53
2019-06-26T09:41:10.912Z,11.70
2019-06-26T09:43:39.217Z,11.28
2019-06-26T09:46:07.601Z,13.85
2019-06-26T09:48:51.471Z,10.18
2019-06-26T09:51:06.163Z,10.35
2019-06-26T09:53:46.471Z,10.58
2019-06-26T09:56:04.914Z,10.75
2019-06-26T09:58:33.349Z,9.25
2019-06-26T10:01:01.642Z,11.28
2019-06-26T10:03:31.349Z,10.18
2019-06-26T10:05:59.880Z,9.30
2019-06-26T10:08:28.365Z,9.83
2019-06-26T10:10:56.712Z,11.20
2019-06-26T10:13:25.321Z,11.15
2019-06-26T10:15:53.888Z,11.88
2019-06-26T10:18:22.287Z,9.78
2019-06-26T10:20:50.717Z,9.43
2019-06-26T10:23:19.208Z,9.93
2019-06-26T10:25:48.677Z,10.70
2019-06-26T10:28:36.443Z,9.20
2019-06-26T10:31:04.994Z,10.55
2019-06-26T10:33:33.470Z,9.13
2019-06-26T10:36:01.734Z,14.93
2019-06-26T10:38:30.334Z,9.70
2019-06-26T10:40:58.802Z,9.20
2019-06-26T10:43:27.422Z,10.13
2019-06-26T10:45:55.797Z,10.65
2019-06-26T10:48:24.109Z,9.85
2019-06-26T10:50:58.418Z,10.25
2019-06-26T10:53:22.675Z,10.43
2019-06-26T11:03:04.619Z,8.73
2019-06-26T11:05:32.940Z,12.18
2019-06-26T11:08:01.522Z,11.40
2019-06-26T11:10:30.012Z,11.25
2019-06-26T11:12:58.505Z,11.55
2019-06-26T11:15:30.930Z,9.60
2019-06-26T11:17:59.364Z,9.53
2019-06-26T11:20:27.871Z,13.28
2019-06-26T11:22:56.326Z,10.10
2019-06-26T11:25:27.253Z,9.43
2019-06-26T11:27:55.696Z,11.75
2019-06-26T11:30:25.799Z,10.60
2019-06-26T11:32:54.787Z,9.63
2019-06-26T11:35:25.230Z,10.68
2019-06-26T11:37:56.756Z,10.48
2019-06-26T11:40:26.915Z,13.20
2019-06-26T11:43:20.071Z,9.50
2019-06-26T11:45:52.678Z,11.55
2019-06-26T11:48:31.767Z,11.68
2019-06-26T11:51:04.476Z,10.63
2019-06-26T11:53:42.992Z,10.28
2019-06-26T11:56:13.668Z,10.32
2019-06-26T11:58:51.324Z,12.63
2019-06-26T12:01:21.973Z,10.08
2019-06-26T12:03:50.367Z,10.65
2019-06-26T12:06:32.784Z,16.17
2019-06-26T12:09:12.061Z,14.35
2019-06-26T12:11:40.583Z,16.27
2019-06-26T12:14:09.028Z,11.43
2019-06-26T12:16:41.106Z,13.88
2019-06-26T12:19:18.925Z,15.90
2019-06-26T12:21:51.398Z,11.95
2019-06-26T12:24:26.766Z,13.90
2019-06-26T12:27:01.522Z,10.70
2019-06-26T12:29:32.932Z,18.07
2019-06-26T12:32:00.586Z,14.68
2019-06-26T12:34:28.999Z,13.83
2019-06-26T12:36:57.342Z,15.03
2019-06-26T12:39:27.903Z,11.90
2019-06-26T12:41:57.220Z,12.40
2019-06-26T12:44:25.547Z,11.33
2019-06-26T12:46:54.107Z,10.45
2019-06-26T12:50:59.015Z,11.28
2019-06-26T12:58:13.808Z,15.40
2019-06-26T13:01:38.293Z,9.15
2019-06-26T13:04:10.219Z,10.43
2019-06-26T13:06:38.500Z,11.38
2019-06-26T13:09:07.714Z,13.55
2019-06-26T13:11:36.135Z,12.33
2019-06-26T13:14:05.371Z,12.45
2019-06-26T13:16:33.653Z,9.98
2019-06-26T13:19:02.023Z,11.10
2019-06-26T13:21:30.278Z,11.25
2019-06-26T13:23:58.561Z,12.07
2019-06-26T13:26:26.987Z,11.18
2019-06-26T13:28:55.292Z,11.03
2019-06-26T13:31:23.713Z,12.45
2019-06-26T13:33:52.991Z,11.03
2019-06-26T13:36:22.414Z,11.73
2019-06-26T13:38:50.962Z,9.95
2019-06-26T13:46:05.288Z,9.18
2019-06-26T13:52:14.774Z,9.58
2019-06-26T13:54:50.136Z,10.82
2019-06-26T13:57:25.134Z,10.00
2019-06-26T14:03:16.796Z,8.38
2019-06-26T14:05:48.321Z,8.20
2019-06-26T14:08:27.343Z,9.40
2019-06-26T14:10:57.593Z,10.82
2019-06-26T14:13:36.409Z,9.08
2019-06-26T14:16:05.274Z,9.90
2019-06-26T14:18:43.646Z,15.75
2019-06-26T14:21:26.438Z,10.70
2019-06-26T14:24:01.914Z,8.70
2019-06-26T14:26:33.720Z,14.73
2019-06-26T14:29:19.971Z,7.15
2019-06-26T14:32:03.736Z,11.00
2019-06-26T14:34:40.350Z,10.45
2019-06-26T14:37:16.082Z,7.33
2019-06-26T14:39:44.680Z,9.70
2019-06-26T14:42:13.155Z,9.25
2019-06-26T14:45:11.433Z,9.55
2019-06-26T14:51:01.970Z,13.48
2019-06-26T14:53:41.404Z,7.55
2019-06-26T14:56:10.919Z,7.92
2019-06-26T14:58:57.684Z,7.70
2019-06-26T15:01:30.381Z,11.28
2019-06-26T15:04:19.829Z,7.85
2019-06-26T15:07:08.500Z,7.90
2019-06-26T15:16:12.115Z,7.30
2019-06-26T15:18:47.399Z,8.48
2019-06-26T15:21:15.763Z,10.58
2019-06-26T15:23:44.268Z,8.73
2019-06-26T15:26:27.896Z,9.68
2019-06-26T15:29:20.299Z,11.40
2019-06-26T15:31:52.455Z,8.65
2019-06-26T15:34:33.985Z,9.38
2019-06-26T15:37:06.537Z,10.75
2019-06-26T15:39:34.918Z,7.97
2019-06-26T15:42:13.141Z,10.40
2019-06-26T15:45:21.691Z,9.38
2019-06-26T15:47:53.233Z,9.05
2019-06-26T15:50:26.898Z,11.22
2019-06-26T15:52:55.464Z,9.80
2019-06-26T15:55:29.748Z,8.88
2019-06-26T15:58:05.739Z,9.95
2019-06-26T16:00:41.996Z,10.70
2019-06-26T16:03:10.638Z,10.23
2019-06-26T16:05:43.518Z,8.85
2019-06-26T16:08:11.908Z,7.72
2019-06-26T16:10:46.618Z,9.03
2019-06-26T16:13:36.458Z,9.30
2019-06-26T16:16:24.003Z,9.80
2019-06-26T16:19:13.102Z,11.28
2019-06-26T16:21:53.222Z,8.98
2019-06-26T16:24:33.483Z,8.25
2019-06-26T16:27:01.933Z,10.95
2019-06-26T16:29:30.357Z,9.38
2019-06-26T16:32:05.025Z,8.90
2019-06-26T16:34:58.593Z,9.60
2019-06-26T16:40:21.755Z,8.25
2019-06-26T16:42:50.262Z,9.98
2019-06-26T16:45:18.784Z,11.75
2019-06-26T16:47:47.366Z,12.88
2019-06-26T16:50:16.680Z,9.95
2019-06-26T16:52:49.564Z,9.25
2019-06-26T16:55:15.652Z,13.28
2019-06-26T16:57:45.620Z,8.53
2019-06-26T17:00:17.484Z,10.65
2019-06-26T17:02:46.438Z,7.97
2019-06-26T17:05:15.127Z,9.23
2019-06-26T17:07:43.611Z,13.65
2019-06-26T17:10:13.563Z,12.43
2019-06-26T17:12:42.063Z,7.60
2019-06-26T17:15:10.803Z,8.58
2019-06-26T17:17:40.100Z,10.30
2019-06-26T17:20:09.052Z,8.38
2019-06-26T17:22:38.163Z,8.50
2019-06-26T17:25:07.002Z,7.80
2019-06-26T17:27:35.626Z,9.88
2019-06-26T17:30:05.006Z,14.93
2019-06-26T17:32:33.351Z,8.45
2019-06-26T17:35:01.742Z,8.80
2019-06-26T17:37:30.259Z,9.93
2019-06-26T17:40:00.175Z,8.43
2019-06-26T17:42:35.724Z,9.58
2019-06-26T17:45:07.027Z,9.23
2019-06-26T17:47:35.568Z,8.55
2019-06-26T17:50:04.622Z,9.05
2019-06-26T17:52:37.034Z,10.03
2019-06-26T17:55:03.429Z,8.78
2019-06-26T17:57:32.880Z,13.22
2019-06-26T18:00:01.433Z,8.10
2019-06-26T18:02:30.961Z,8.40
2019-06-26T18:04:59.415Z,11.95
2019-06-26T18:07:27.736Z,8.50
2019-06-26T18:09:56.289Z,13.25
2019-06-26T18:12:24.832Z,9.15
2019-06-26T18:14:53.302Z,11.95
2019-06-26T18:17:22.729Z,12.30
2019-06-26T18:19:53.826Z,11.50
2019-06-26T18:22:21.508Z,11.00
2019-06-26T18:24:49.913Z,10.28
2019-06-26T18:27:18.503Z,12.18
2019-06-26T18:29:46.901Z,10.85
2019-06-26T18:32:15.405Z,8.40
2019-06-26T18:34:46.713Z,13.38
2019-06-26T18:37:14.059Z,9.95
2019-06-26T18:39:42.499Z,10.85
2019-06-26T18:42:10.939Z,11.57
2019-06-26T18:44:39.530Z,10.10
2019-06-26T18:47:10.117Z,11.68
2019-06-26T18:49:38.532Z,8.65
2019-06-26T18:52:07.896Z,11.03
2019-06-26T18:54:36.542Z,14.38
2019-06-26T18:57:05.176Z,11.30
2019-06-26T18:59:33.568Z,11.15
2019-06-26T19:02:02.136Z,10.80
2019-06-26T19:04:30.535Z,10.80
2019-06-26T19:06:58.889Z,14.78
2019-06-26T19:09:27.268Z,17.98
2019-06-26T19:11:55.766Z,14.10
2019-06-26T19:14:24.176Z,19.12
2019-06-26T19:16:52.560Z,13.85
2019-06-26T19:19:20.953Z,11.22
2019-06-26T19:22:14.949Z,13.45
2019-06-26T19:24:43.357Z,10.00
2019-06-26T19:27:11.764Z,10.48
2019-06-26T19:29:40.118Z,14.98
2019-06-26T19:32:08.592Z,10.53
2019-06-26T19:34:36.949Z,12.55
2019-06-26T19:37:05.409Z,21.30
2019-06-26T19:39:33.797Z,14.93
2019-06-26T19:42:02.361Z,14.85
2019-06-26T19:44:30.694Z,17.70
2019-06-26T19:46:59.106Z,17.75
2019-06-26T19:49:27.619Z,16.37
2019-06-26T19:51:55.989Z,13.95
2019-06-26T19:54:27.727Z,14.55
2019-06-26T19:56:54.585Z,13.48
2019-06-26T19:59:22.984Z,17.75
2019-06-26T20:01:51.565Z,12.10
2019-06-26T20:04:20.086Z,15.75
2019-06-26T20:06:48.507Z,18.57
2019-06-26T20:09:16.887Z,14.55
2019-06-26T20:11:45.313Z,14.00
2019-06-26T20:14:13.843Z,11.53
2019-06-26T20:16:42.239Z,16.52
2019-06-26T20:19:10.665Z,14.05
2019-06-26T20:21:39.227Z,12.28
2019-06-26T20:24:07.630Z,12.63
2019-06-26T20:26:35.963Z,14.50
2019-06-26T20:29:04.559Z,10.30
2019-06-26T20:31:32.986Z,13.75
2019-06-26T20:34:01.291Z,14.75
2019-06-26T20:36:30.708Z,15.95
2019-06-26T20:38:59.085Z,14.87
2019-06-26T20:41:27.691Z,11.95
2019-06-26T20:43:56.175Z,12.98
2019-06-26T20:46:24.629Z,11.97
2019-06-26T20:48:54.005Z,13.65
2019-06-26T20:51:23.638Z,17.27
2019-06-26T20:53:52.025Z,16.32
2019-06-26T20:56:20.326Z,15.40
2019-06-26T20:58:48.726Z,18.95
2019-06-26T21:01:17.324Z,19.65
2019-06-26T21:03:45.595Z,23.10
2019-06-26T21:06:15.241Z,21.10
2019-06-26T21:08:43.686Z,15.83
2019-06-26T21:11:14.853Z,13.95
2019-06-26T21:13:42.144Z,16.62
2019-06-26T21:16:10.549Z,30.62
2019-06-26T21:18:39.015Z,17.77
2019-06-26T21:21:07.469Z,17.12
2019-06-26T21:23:35.952Z,19.80
2019-06-26T21:26:04.325Z,16.35
2019-06-26T21:28:32.738Z,14.30
2019-06-26T21:31:01.153Z,20.00
2019-06-26T21:33:29.906Z,18.40
2019-06-26T21:35:58.457Z,18.32
2019-06-26T21:38:26.845Z,20.40
2019-06-26T21:40:55.305Z,17.50
2019-06-26T21:43:23.874Z,16.87
2019-06-26T21:45:52.226Z,16.85
2019-06-26T21:48:20.792Z,16.42
2019-06-26T21:50:49.246Z,15.55
2019-06-26T21:53:17.699Z,15.15
2019-06-26T21:56:04.234Z,16.30
2019-06-26T21:58:51.094Z,14.25
2019-06-26T22:01:38.222Z,17.85
2019-06-26T22:04:25.561Z,18.27
2019-06-26T22:07:07.986Z,18.60
2019-06-26T22:09:40.794Z,14.38
2019-06-26T22:12:09.245Z,14.23
2019-06-26T22:14:37.834Z,17.15
2019-06-26T22:17:09.079Z,16.62
2019-06-26T22:19:37.450Z,17.62
2019-06-26T22:22:05.999Z,17.80
2019-06-26T22:24:34.434Z,15.15
2019-06-26T22:27:02.985Z,15.35
2019-06-26T22:29:31.453Z,14.18
2019-06-26T22:32:00.099Z,15.30
2019-06-26T22:34:28.591Z,14.30
2019-06-26T22:36:57.113Z,17.00
2019-06-26T22:39:25.526Z,15.35
2019-06-26T22:41:53.934Z,15.32
2019-06-26T22:44:22.320Z,13.72
2019-06-26T22:46:50.715Z,17.35
2019-06-26T22:49:20.314Z,15.23
2019-06-26T22:51:49.731Z,18.07
2019-06-26T22:54:19.865Z,14.95
2019-06-26T22:56:48.595Z,14.83
2019-06-26T22:59:17.188Z,16.20
2019-06-26T23:01:45.565Z,16.75
2019-06-26T23:04:13.911Z,15.08
2019-06-26T23:06:42.439Z,15.83
2019-06-26T23:09:10.852Z,13.95
2019-06-26T23:11:39.299Z,17.52
2019-06-26T23:14:07.751Z,15.50
2019-06-26T23:16:36.407Z,15.45
2019-06-26T23:19:04.746Z,16.80
2019-06-26T23:21:33.247Z,17.57
2019-06-26T23:24:01.625Z,16.80
2019-06-26T23:26:30.317Z,15.93
2019-06-26T23:28:58.812Z,15.55
2019-06-26T23:31:27.401Z,17.92
2019-06-26T23:33:55.766Z,13.98
2019-06-26T23:36:24.067Z,16.12
2019-06-26T23:38:52.588Z,13.90
2019-06-26T23:41:20.861Z,15.08
2019-06-26T23:43:49.228Z,14.25
2019-06-26T23:46:17.635Z,13.75
2019-06-26T23:48:46.241Z,13.83
2019-06-26T23:51:14.611Z,14.35
2019-06-26T23:53:43.054Z,14.05
2019-06-26T23:56:11.487Z,15.23
2019-06-26T23:58:39.962Z,13.50
